Time;durP1;ratioP1;P1;durP2;ratioP2;P2;SDS_P1;SDS_P2;PMS_P1;PMS_P2;Temp;Humidity;BMP_temperature;BMP_pressure;BME280_temperature;BME280_humidity;BME280_pressure;Samples;Min_cycle;Max_cycle;Signal;HPM_P1;HPM_P2
2022/07/17 00:02:44;;;;;;;2.90;1.60;;;;;;;13.02;76.23;100571.80;130214;1268;108078;-72
2022/07/17 00:05:49;;;;;;;3.30;1.50;;;;;;;12.99;76.02;100580.80;130203;1268;107773;-71
2022/07/17 00:08:55;;;;;;;3.60;1.60;;;;;;;12.91;76.22;100580.70;130207;1268;108519;-71
2022/07/17 00:12:00;;;;;;;4.70;2.10;;;;;;;12.87;76.08;100587.84;130203;1268;108732;-73
2022/07/17 00:15:07;;;;;;;2.90;1.40;;;;;;;12.85;76.45;100586.59;130213;1268;108903;-70
2022/07/17 00:18:12;;;;;;;2.00;1.40;;;;;;;12.84;76.32;100586.28;130129;1268;109036;-69
2022/07/17 00:21:18;;;;;;;2.90;1.20;;;;;;;12.85;76.25;100590.14;130067;1268;108980;-70
2022/07/17 00:24:24;;;;;;;2.90;1.30;;;;;;;12.78;76.23;100588.95;130160;1267;108203;-70
2022/07/17 00:27:29;;;;;;;3.30;1.40;;;;;;;12.68;76.19;100589.91;130162;1268;108712;-70
2022/07/17 00:30:35;;;;;;;2.50;1.20;;;;;;;12.61;76.57;100589.02;130043;1268;108684;-70
2022/07/17 00:33:41;;;;;;;2.20;1.10;;;;;;;12.54;76.49;100591.00;130156;1268;108762;-70
2022/07/17 00:36:47;;;;;;;2.90;1.50;;;;;;;12.50;76.79;100596.22;130218;1268;107592;-71
2022/07/17 00:39:52;;;;;;;2.50;1.20;;;;;;;12.43;76.82;100602.51;130194;1268;108882;-71
2022/07/17 00:42:58;;;;;;;4.80;1.40;;;;;;;12.40;76.67;100606.89;130201;1268;108842;-71
2022/07/17 00:46:04;;;;;;;2.30;1.00;;;;;;;12.34;77.21;100608.23;130190;1268;107767;-71
2022/07/17 00:49:09;;;;;;;3.10;1.20;;;;;;;12.26;77.36;100609.88;130213;1268;108726;-73
2022/07/17 00:52:16;;;;;;;3.00;1.70;;;;;;;12.21;77.70;100609.56;130275;1268;108759;-73
2022/07/17 00:55:22;;;;;;;2.20;1.40;;;;;;;12.16;77.48;100618.21;130203;1268;108722;-73
2022/07/17 00:58:29;;;;;;;4.20;1.40;;;;;;;12.12;77.71;100619.66;130250;1268;108644;-74
2022/07/17 01:01:35;;;;;;;3.60;1.60;;;;;;;12.11;77.45;100624.97;130238;1268;109211;-74
2022/07/17 01:04:40;;;;;;;6.40;1.30;;;;;;;12.04;77.48;100630.29;130214;1268;107391;-73
2022/07/17 01:07:46;;;;;;;4.70;1.50;;;;;;;11.98;77.42;100628.37;130219;1268;108519;-74
2022/07/17 01:10:52;;;;;;;4.00;1.30;;;;;;;11.93;77.84;100631.41;130222;1268;107227;-73
2022/07/17 01:13:57;;;;;;;6.50;1.90;;;;;;;11.85;77.89;100629.14;130213;1268;108728;-72
2022/07/17 01:17:03;;;;;;;4.10;1.40;;;;;;;11.84;78.10;100632.06;130248;1268;108916;-72
2022/07/17 01:20:12;;;;;;;4.20;1.40;;;;;;;11.81;78.07;100635.21;130203;1268;108876;-72
2022/07/17 01:23:19;;;;;;;4.30;1.40;;;;;;;11.76;77.85;100641.52;130264;1268;108846;-71
2022/07/17 01:26:25;;;;;;;4.30;1.40;;;;;;;11.75;78.06;100643.34;130278;1268;108775;-71
2022/07/17 01:29:30;;;;;;;3.60;1.00;;;;;;;11.73;77.90;100646.02;130230;1268;108757;-71
2022/07/17 01:32:37;;;;;;;2.50;1.30;;;;;;;11.75;78.01;100641.70;130192;1268;108895;-72
2022/07/17 01:35:43;;;;;;;5.70;1.40;;;;;;;11.74;78.32;100641.20;130272;1268;108607;-72
2022/07/17 01:38:48;;;;;;;3.80;1.50;;;;;;;11.70;78.75;100644.49;130211;1268;108853;-73
2022/07/17 01:41:54;;;;;;;2.90;1.50;;;;;;;11.63;78.90;100644.88;130187;1268;107207;-73
2022/07/17 01:45:00;;;;;;;3.70;1.40;;;;;;;11.57;78.75;100640.08;130207;1268;108547;-72
2022/07/17 01:48:06;;;;;;;3.10;1.30;;;;;;;11.54;79.10;100643.75;130191;1268;108837;-73
2022/07/17 01:51:12;;;;;;;3.10;1.20;;;;;;;11.52;78.77;100643.20;130222;1268;108966;-72
2022/07/17 01:54:17;;;;;;;2.20;1.50;;;;;;;11.49;79.03;100645.98;130197;1268;108814;-70
2022/07/17 01:57:23;;;;;;;4.20;2.00;;;;;;;11.46;79.23;100645.10;130091;1268;108916;-70
2022/07/17 02:00:28;;;;;;;2.60;1.20;;;;;;;11.45;78.94;100643.63;130028;1268;109534;-70
2022/07/17 02:03:34;;;;;;;2.60;1.20;;;;;;;11.46;78.86;100647.80;130062;1268;111630;-71
2022/07/17 02:06:39;;;;;;;4.50;1.40;;;;;;;11.49;78.84;100644.22;130164;1268;108638;-72
2022/07/17 02:09:44;;;;;;;4.70;1.20;;;;;;;11.46;79.14;100645.26;130204;1268;108920;-73
2022/07/17 02:12:50;;;;;;;1.70;1.10;;;;;;;11.39;78.89;100645.52;130168;1268;108827;-76
2022/07/17 02:15:55;;;;;;;2.30;1.10;;;;;;;11.34;79.07;100649.37;130150;1268;109009;-79
2022/07/17 02:19:00;;;;;;;3.90;1.10;;;;;;;11.32;79.15;100652.11;130111;1268;108913;-78
2022/07/17 02:22:06;;;;;;;3.40;1.20;;;;;;;11.35;79.16;100654.61;130184;1268;108966;-78
2022/07/17 02:25:12;;;;;;;3.80;1.20;;;;;;;11.37;79.07;100660.02;130177;1268;107712;-78
2022/07/17 02:28:18;;;;;;;2.70;1.30;;;;;;;11.36;79.11;100659.52;130187;1268;108731;-73
2022/07/17 02:31:23;;;;;;;3.20;1.40;;;;;;;11.38;79.49;100661.16;130202;1268;108735;-73
2022/07/17 02:34:29;;;;;;;3.70;1.30;;;;;;;11.41;79.25;100657.30;130165;1268;108777;-73
2022/07/17 02:37:35;;;;;;;3.00;1.20;;;;;;;11.42;79.30;100656.38;130217;1268;108735;-72
2022/07/17 02:40:41;;;;;;;2.20;1.30;;;;;;;11.39;79.60;100652.33;130174;1268;108911;-71
2022/07/17 02:43:47;;;;;;;3.10;1.30;;;;;;;11.40;79.63;100655.80;130071;1268;108904;-70
2022/07/17 02:46:52;;;;;;;3.20;1.20;;;;;;;11.36;79.65;100652.83;130050;1268;108142;-71
2022/07/17 02:49:58;;;;;;;3.50;1.20;;;;;;;11.31;79.65;100653.48;130055;1268;108857;-71
2022/07/17 02:53:03;;;;;;;2.40;1.10;;;;;;;11.29;79.60;100657.56;130194;1268;108528;-71
2022/07/17 02:56:09;;;;;;;3.20;1.20;;;;;;;11.30;79.65;100658.86;130180;1268;107272;-71
2022/07/17 02:59:15;;;;;;;2.50;1.30;;;;;;;11.35;80.01;100666.77;130238;1268;108611;-75
2022/07/17 03:02:20;;;;;;;2.50;1.30;;;;;;;11.39;80.00;100669.27;130220;1268;108749;-72
2022/07/17 03:05:25;;;;;;;3.10;1.30;;;;;;;11.38;79.75;100668.63;130208;1268;108783;-73
2022/07/17 03:08:31;;;;;;;2.90;1.40;;;;;;;11.42;79.96;100671.47;130181;1268;108755;-73
2022/07/17 03:11:36;;;;;;;2.50;1.40;;;;;;;11.47;80.04;100677.58;130156;1268;108821;-71
2022/07/17 03:14:41;;;;;;;4.80;1.40;;;;;;;11.53;79.95;100684.33;130220;1268;108664;-71
2022/07/17 03:17:47;;;;;;;2.00;1.00;;;;;;;11.58;80.38;100685.93;130207;1268;108909;-73
2022/07/17 03:20:52;;;;;;;2.40;1.20;;;;;;;11.65;79.90;100689.14;130216;1268;109166;-73
2022/07/17 03:23:57;;;;;;;2.70;1.40;;;;;;;11.70;80.06;100692.29;130193;1268;108874;-75
2022/07/17 03:27:03;;;;;;;3.70;1.30;;;;;;;11.78;79.84;100697.89;130204;1268;109119;-74
2022/07/17 03:30:10;;;;;;;4.70;1.10;;;;;;;11.88;79.67;100697.50;130217;1268;108779;-74
2022/07/17 03:33:15;;;;;;;2.40;1.30;;;;;;;12.01;79.75;100699.13;130216;1268;108710;-78
2022/07/17 03:36:21;;;;;;;3.10;1.30;;;;;;;12.14;79.59;100698.31;130199;1268;108656;-79
2022/07/17 03:39:26;;;;;;;4.10;1.10;;;;;;;12.33;79.44;100696.05;130163;1268;108959;-76
2022/07/17 03:42:32;;;;;;;3.40;1.30;;;;;;;12.44;79.38;100701.73;130190;1268;108815;-75
2022/07/17 03:45:37;;;;;;;3.20;1.10;;;;;;;12.45;79.45;100701.12;130154;1268;108677;-76
2022/07/17 03:48:43;;;;;;;3.70;1.20;;;;;;;12.51;79.46;100704.04;130209;1268;108618;-76
2022/07/17 03:51:48;;;;;;;2.40;1.10;;;;;;;12.63;79.30;100708.27;130197;1268;107706;-75
2022/07/17 03:54:54;;;;;;;2.90;1.20;;;;;;;12.73;79.04;100703.33;130188;1268;108748;-75
2022/07/17 03:57:59;;;;;;;4.50;1.30;;;;;;;12.76;79.04;100701.05;130180;1268;108585;-74
2022/07/17 04:01:05;;;;;;;2.90;1.10;;;;;;;12.80;78.90;100701.86;130156;1268;108718;-73
2022/07/17 04:04:10;;;;;;;2.30;1.30;;;;;;;12.82;78.90;100706.90;130167;1268;108671;-74
2022/07/17 04:07:27;;;;;;;2.70;1.10;;;;;;;12.92;79.11;100709.52;130174;1268;107711;-73
2022/07/17 04:10:33;;;;;;;5.40;1.10;;;;;;;13.03;78.99;100708.86;130228;1268;109483;-75
2022/07/17 04:13:39;;;;;;;3.80;1.40;;;;;;;13.05;78.94;100705.92;130234;1268;109833;-73
2022/07/17 04:16:44;;;;;;;3.00;1.30;;;;;;;13.13;78.84;100705.41;130213;1268;108103;-73
2022/07/17 04:19:50;;;;;;;2.40;1.10;;;;;;;13.11;78.69;100705.63;130140;1268;108783;-72
2022/07/17 04:22:55;;;;;;;5.00;1.70;;;;;;;13.04;78.76;100698.77;130120;1268;108824;-76
2022/07/17 04:26:01;;;;;;;5.10;1.20;;;;;;;13.02;79.00;100705.91;130198;1268;107564;-78
2022/07/17 04:29:06;;;;;;;2.40;1.30;;;;;;;13.05;78.94;100710.08;130193;1268;108555;-79
2022/07/17 04:32:12;;;;;;;3.60;1.40;;;;;;;13.08;78.87;100710.95;130196;1268;109732;-81
2022/07/17 04:35:17;;;;;;;4.30;1.20;;;;;;;13.02;78.89;100715.75;130209;1268;108961;-76
2022/07/17 04:38:23;;;;;;;3.80;1.40;;;;;;;13.06;79.00;100716.55;130189;1268;108721;-78
2022/07/17 04:41:28;;;;;;;3.80;1.20;;;;;;;13.05;78.77;100724.17;130217;1268;108856;-79
2022/07/17 04:44:34;;;;;;;6.00;1.60;;;;;;;13.05;79.12;100724.73;130184;1268;108970;-78
2022/07/17 04:47:39;;;;;;;3.90;1.20;;;;;;;13.02;79.01;100726.63;130176;1268;108963;-77
2022/07/17 04:50:44;;;;;;;4.30;1.60;;;;;;;13.05;79.26;100725.72;130184;1268;108764;-78
2022/07/17 04:53:50;;;;;;;3.60;1.20;;;;;;;13.18;79.30;100734.08;130200;1268;108919;-78
2022/07/17 04:56:55;;;;;;;3.80;1.20;;;;;;;13.48;79.46;100740.64;130230;1268;109290;-77
2022/07/17 05:00:00;;;;;;;5.20;1.40;;;;;;;13.82;79.22;100741.75;130228;1268;108813;-78
2022/07/17 05:03:06;;;;;;;2.60;1.00;;;;;;;14.12;79.06;100738.53;130210;1268;108851;-79
2022/07/17 05:06:12;;;;;;;5.60;1.40;;;;;;;14.38;78.71;100748.83;130220;1268;108804;-80
2022/07/17 05:09:17;;;;;;;3.40;1.20;;;;;;;14.38;78.53;100750.47;130213;1268;108655;-74
2022/07/17 05:12:22;;;;;;;4.30;1.30;;;;;;;14.45;78.92;100763.33;130235;1268;108677;-74
2022/07/17 05:15:28;;;;;;;5.40;1.60;;;;;;;14.59;78.75;100765.21;130195;1268;107512;-74
2022/07/17 05:18:33;;;;;;;4.70;1.40;;;;;;;14.71;78.71;100766.20;130193;1268;108872;-75
2022/07/17 05:21:39;;;;;;;5.90;1.50;;;;;;;14.86;78.60;100770.30;130198;1268;108881;-75
2022/07/17 05:24:44;;;;;;;5.80;1.70;;;;;;;14.94;78.31;100776.41;130202;1268;108735;-75
2022/07/17 05:27:49;;;;;;;4.90;1.60;;;;;;;15.05;78.32;100779.39;130239;1268;108970;-77
2022/07/17 05:30:55;;;;;;;5.60;1.40;;;;;;;15.21;78.59;100785.41;130215;1267;108927;-76
2022/07/17 05:34:00;;;;;;;5.00;1.50;;;;;;;15.30;78.17;100784.13;130178;1267;108746;-76
2022/07/17 05:37:06;;;;;;;4.70;1.30;;;;;;;15.34;78.05;100783.91;130292;1267;109108;-81
2022/07/17 05:40:12;;;;;;;4.80;1.70;;;;;;;15.46;78.36;100785.54;130356;1267;108948;-81
2022/07/17 05:43:17;;;;;;;11.90;9.20;;;;;;;15.66;77.84;100787.23;130405;1267;107881;-75
2022/07/17 05:46:22;;;;;;;6.50;3.30;;;;;;;15.70;77.53;100792.66;130324;1267;108725;-79
2022/07/17 05:49:28;;;;;;;3.00;1.60;;;;;;;15.85;77.95;100793.34;130437;1267;108646;-73
2022/07/17 05:52:33;;;;;;;6.70;2.60;;;;;;;16.10;77.52;100797.00;130385;1267;108712;-74
2022/07/17 05:55:39;;;;;;;9.40;6.50;;;;;;;16.12;76.73;100796.98;130193;1267;108922;-74
2022/07/17 05:58:44;;;;;;;4.30;2.10;;;;;;;16.05;76.22;100803.27;130248;1267;108995;-73
2022/07/17 06:01:49;;;;;;;3.70;1.60;;;;;;;16.00;76.40;100805.85;130253;1267;108763;-72
2022/07/17 06:04:55;;;;;;;3.60;1.40;;;;;;;16.03;76.38;100811.64;130234;1267;108814;-73
2022/07/17 06:08:00;;;;;;;2.70;1.40;;;;;;;16.08;77.05;100810.46;130238;1266;108687;-71
2022/07/17 06:11:07;;;;;;;4.10;1.30;;;;;;;16.31;76.66;100810.45;130192;1267;108602;-74
2022/07/17 06:14:12;;;;;;;3.00;2.20;;;;;;;16.45;76.38;100817.41;130262;1267;108162;-78
2022/07/17 06:17:17;;;;;;;4.80;2.60;;;;;;;16.53;75.10;100818.46;130211;1267;108806;-72
2022/07/17 06:20:23;;;;;;;9.80;4.60;;;;;;;16.41;75.23;100822.84;130470;1267;108731;-70
2022/07/17 06:23:28;;;;;;;6.20;2.20;;;;;;;16.45;75.71;100825.58;130233;1267;108871;-72
2022/07/17 06:26:34;;;;;;;4.20;1.80;;;;;;;16.49;75.67;100827.65;130265;1267;108755;-72
2022/07/17 06:29:40;;;;;;;6.30;4.70;;;;;;;16.56;75.91;100826.06;130259;1267;108744;-73
2022/07/17 06:32:45;;;;;;;5.70;3.20;;;;;;;16.58;75.14;100829.79;130461;1267;108748;-72
2022/07/17 06:35:51;;;;;;;4.80;2.40;;;;;;;16.52;75.18;100836.05;130222;1267;107697;-72
2022/07/17 06:38:56;;;;;;;5.40;1.30;;;;;;;16.52;74.83;100836.02;130306;1267;108792;-73
2022/07/17 06:42:01;;;;;;;4.50;1.70;;;;;;;16.50;75.06;100835.52;130368;1267;108850;-72
2022/07/17 06:45:09;;;;;;;6.00;1.70;;;;;;;16.50;75.47;100836.40;130266;1266;107020;-72
2022/07/17 06:48:14;;;;;;;4.10;1.40;;;;;;;16.58;75.80;100837.45;130308;1267;108836;-72
2022/07/17 06:51:20;;;;;;;4.00;1.10;;;;;;;16.74;75.31;100837.58;130367;1267;108782;-78
2022/07/17 06:54:26;;;;;;;3.90;2.40;;;;;;;16.77;74.52;100839.18;130334;1267;108731;-75
2022/07/17 06:57:32;;;;;;;5.40;1.80;;;;;;;16.74;74.76;100833.65;130279;1267;107796;-73
2022/07/17 07:00:38;;;;;;;2.20;1.20;;;;;;;16.81;75.14;100836.71;130383;1267;109687;-71
2022/07/17 07:03:43;;;;;;;3.40;1.30;;;;;;;16.96;74.83;100837.96;130300;1267;108789;-71
2022/07/17 07:06:49;;;;;;;4.20;1.50;;;;;;;16.97;74.33;100834.91;130416;1267;108688;-72
2022/07/17 07:09:54;;;;;;;2.80;1.40;;;;;;;17.01;74.22;100835.02;130285;1267;108755;-73
2022/07/17 07:13:00;;;;;;;3.10;1.70;;;;;;;16.96;73.69;100831.42;130253;1267;108784;-70
2022/07/17 07:16:05;;;;;;;3.30;1.30;;;;;;;16.86;73.60;100833.87;130128;1267;108767;-73
2022/07/17 07:19:11;;;;;;;3.70;1.30;;;;;;;16.85;74.01;100833.09;130264;1267;108804;-74
2022/07/17 07:22:16;;;;;;;3.40;1.20;;;;;;;16.94;74.09;100840.44;130259;1267;109073;-75
2022/07/17 07:25:22;;;;;;;3.70;1.10;;;;;;;16.91;72.86;100839.59;130259;1267;109012;-75
2022/07/17 07:28:27;;;;;;;3.00;1.40;;;;;;;16.94;74.10;100843.54;130297;1267;108814;-72
2022/07/17 07:31:33;;;;;;;2.90;1.40;;;;;;;17.01;73.63;100846.79;130265;1267;108926;-74
2022/07/17 07:34:38;;;;;;;3.10;1.10;;;;;;;17.07;74.08;100843.94;130297;1267;108809;-75
2022/07/17 07:37:44;;;;;;;3.10;1.00;;;;;;;17.26;73.57;100850.91;130477;1267;107722;-74
2022/07/17 07:40:49;;;;;;;3.70;1.40;;;;;;;17.36;72.77;100852.27;130343;1267;108865;-74
2022/07/17 07:43:54;;;;;;;4.60;1.30;;;;;;;17.45;72.96;100848.23;130302;1267;108634;-75
2022/07/17 07:47:00;;;;;;;1.80;1.20;;;;;;;17.55;72.94;100849.64;130295;1267;108757;-76
2022/07/17 07:50:07;;;;;;;4.00;1.10;;;;;;;17.66;73.03;100850.84;130269;1267;108587;-76
2022/07/17 07:53:12;;;;;;;2.40;0.90;;;;;;;17.86;71.98;100846.29;130315;1267;108259;-73
2022/07/17 07:56:17;;;;;;;3.00;0.90;;;;;;;18.00;71.80;100845.63;130272;1267;108842;-74
2022/07/17 07:59:23;;;;;;;2.90;1.00;;;;;;;18.05;69.03;100850.20;130190;1268;108696;-75
2022/07/17 08:02:28;;;;;;;3.10;1.10;;;;;;;17.99;69.57;100848.30;130263;1267;107843;-76
2022/07/17 08:05:34;;;;;;;1.40;0.70;;;;;;;18.04;69.42;100850.02;130348;1267;108732;-72
2022/07/17 08:08:39;;;;;;;2.80;0.70;;;;;;;18.13;69.29;100852.36;130357;1267;109755;-77
2022/07/17 08:11:45;;;;;;;2.90;0.80;;;;;;;18.21;68.38;100851.58;130317;1267;108722;-71
2022/07/17 08:14:50;;;;;;;2.00;0.90;;;;;;;18.20;66.84;100857.23;130342;1267;108883;-80
2022/07/17 08:17:55;;;;;;;1.80;0.90;;;;;;;18.23;68.10;100853.14;130289;1267;108754;-76
2022/07/17 08:21:01;;;;;;;1.90;0.70;;;;;;;18.33;69.16;100851.28;130314;1267;108727;-72
2022/07/17 08:24:07;;;;;;;1.70;1.10;;;;;;;18.40;69.00;100853.75;130418;1267;108702;-74
2022/07/17 08:27:13;;;;;;;2.20;0.90;;;;;;;18.44;67.35;100861.52;130340;1267;108736;-76
2022/07/17 08:30:18;;;;;;;2.60;0.90;;;;;;;18.62;65.31;100864.20;130332;1267;110788;-73
2022/07/17 08:33:23;;;;;;;1.40;0.60;;;;;;;18.94;66.34;100859.70;130344;1267;107495;-77
2022/07/17 08:36:29;;;;;;;1.30;0.60;;;;;;;19.17;63.70;100868.89;130309;1268;108892;-74
2022/07/17 08:39:35;;;;;;;4.70;1.70;;;;;;;19.27;62.99;100871.68;130273;1267;107666;-73
2022/07/17 08:42:42;;;;;;;2.00;1.20;;;;;;;19.24;62.30;100860.91;130275;1267;109119;-75
2022/07/17 08:45:50;;;;;;;1.80;0.90;;;;;;;19.41;62.81;100868.67;130330;1267;108647;-82
2022/07/17 08:49:00;;;;;;;1.80;0.90;;;;;;;19.64;60.81;100872.22;130264;1267;108609;-78
2022/07/17 08:52:06;;;;;;;5.90;2.00;;;;;;;19.68;61.03;100875.70;130327;1266;108872;-77
2022/07/17 08:55:13;;;;;;;2.80;1.50;;;;;;;19.67;60.07;100867.15;130290;1267;108720;-76
2022/07/17 08:58:19;;;;;;;1.80;1.10;;;;;;;19.72;61.13;100867.54;130493;1267;108041;-77
2022/07/17 09:01:26;;;;;;;1.90;1.10;;;;;;;19.87;62.90;100873.61;130328;1267;108758;-77
2022/07/17 09:04:32;;;;;;;4.10;1.10;;;;;;;19.90;59.80;100880.46;130271;1267;108968;-79
2022/07/17 09:07:47;;;;;;;1.70;1.20;;;;;;;19.87;60.11;100884.04;130301;1269;109210;-72
2022/07/17 09:10:55;;;;;;;2.10;1.20;;;;;;;19.81;59.49;100879.06;130019;1267;306776;-75
2022/07/17 09:14:00;;;;;;;3.50;0.80;;;;;;;19.82;60.17;100879.66;130397;1268;108881;-77
2022/07/17 09:17:07;;;;;;;3.60;1.60;;;;;;;19.94;59.03;100877.95;130438;1267;108694;-77
2022/07/17 09:20:16;;;;;;;2.30;1.10;;;;;;;19.80;59.78;100881.02;130290;1267;108724;-76
2022/07/17 09:23:24;;;;;;;2.00;1.20;;;;;;;19.65;60.21;100882.63;130290;1268;109613;-74
2022/07/17 09:26:31;;;;;;;3.70;2.30;;;;;;;19.54;57.08;100889.85;130313;1267;109145;-75
2022/07/17 09:29:52;;;;;;;2.40;1.20;;;;;;;19.46;56.63;100885.66;130359;1267;108979;-76
2022/07/17 09:32:58;;;;;;;1.40;0.80;;;;;;;19.61;56.79;100881.48;130278;1267;108647;-74
2022/07/17 09:36:12;;;;;;;1.30;0.80;;;;;;;19.74;57.12;100881.80;130264;1268;108857;-74
2022/07/17 09:39:17;;;;;;;2.10;0.70;;;;;;;19.79;57.79;100878.14;130307;1267;107293;-74
2022/07/17 09:42:31;;;;;;;3.00;1.60;;;;;;;20.03;57.85;100886.58;130310;1268;109274;-72
2022/07/17 09:45:37;;;;;;;1.80;0.70;;;;;;;20.05;55.22;100888.09;130355;1267;108778;-73
2022/07/17 09:48:47;;;;;;;2.50;0.80;;;;;;;19.87;56.23;100886.98;130416;1268;108729;-71
2022/07/17 09:51:54;;;;;;;2.30;1.10;;;;;;;20.01;57.04;100886.77;130472;1268;109816;-72
2022/07/17 09:55:01;;;;;;;2.80;0.90;;;;;;;20.23;56.58;100884.46;130781;1268;108729;-71
2022/07/17 09:58:08;;;;;;;1.70;0.70;;;;;;;20.32;56.09;100874.50;130393;1268;107701;-71
2022/07/17 10:01:15;;;;;;;2.70;0.90;;;;;;;20.28;53.97;100890.33;130417;1268;108754;-75
2022/07/17 10:04:21;;;;;;;1.20;0.70;;;;;;;20.31;55.97;100880.12;130086;1268;108824;-71
2022/07/17 10:07:26;;;;;;;1.90;1.30;;;;;;;20.62;54.81;100878.09;130154;1268;108702;-72
2022/07/17 10:10:32;;;;;;;1.80;0.70;;;;;;;20.58;51.17;100890.76;130346;1267;108662;-74
2022/07/17 10:13:40;;;;;;;4.60;2.70;;;;;;;20.31;52.45;100888.98;130365;1268;108647;-72
2022/07/17 10:16:46;;;;;;;2.70;2.30;;;;;;;20.05;50.96;100896.77;130416;1267;108777;-72
2022/07/17 10:19:54;;;;;;;2.20;1.10;;;;;;;19.93;52.85;100896.35;130356;1267;108800;-72
2022/07/17 10:23:00;;;;;;;3.40;1.40;;;;;;;20.05;50.58;100902.34;130244;1268;108699;-74
2022/07/17 10:26:05;;;;;;;0.90;0.80;;;;;;;20.16;49.83;100897.56;130244;1268;108983;-71
2022/07/17 10:29:28;;;;;;;1.40;0.70;;;;;;;20.31;49.90;100892.63;130244;1268;108868;-71
2022/07/17 10:32:34;;;;;;;2.00;1.10;;;;;;;20.53;49.68;100890.84;130345;1268;108635;-74
2022/07/17 10:35:48;;;;;;;4.60;1.00;;;;;;;20.57;47.72;100888.98;130211;1268;108709;-71
2022/07/17 10:38:54;;;;;;;2.00;0.70;;;;;;;20.50;47.34;100893.75;130189;1268;108702;-73
2022/07/17 10:42:01;;;;;;;3.10;2.10;;;;;;;20.54;48.54;100893.94;130128;1268;108693;-72
2022/07/17 10:45:12;;;;;;;2.30;1.50;;;;;;;20.62;47.28;100884.64;130145;1268;108847;-74
2022/07/17 10:48:19;;;;;;;7.50;3.70;;;;;;;20.60;47.14;100882.36;130341;1268;108162;-76
2022/07/17 10:51:29;;;;;;;2.90;0.90;;;;;;;20.64;46.50;100874.73;130243;1268;109075;-76
2022/07/17 10:54:37;;;;;;;1.70;1.00;;;;;;;20.76;46.63;100875.84;130292;1268;108736;-72
2022/07/17 10:57:43;;;;;;;8.70;3.40;;;;;;;20.97;48.77;100881.39;130295;1268;107702;-75
2022/07/17 11:01:00;;;;;;;8.40;4.30;;;;;;;21.05;47.56;100888.12;130472;1268;109015;-73
2022/07/17 11:04:06;;;;;;;1.80;0.80;;;;;;;21.09;47.18;100887.08;130149;1268;108718;-73
2022/07/17 11:07:11;;;;;;;3.00;1.10;;;;;;;21.12;45.77;100885.84;130167;1268;108950;-73
2022/07/17 11:10:17;;;;;;;2.00;1.30;;;;;;;21.12;44.16;100887.88;130171;1268;108710;-72
2022/07/17 11:13:22;;;;;;;2.20;0.80;;;;;;;21.04;42.64;100886.66;130318;1268;107800;-73
2022/07/17 11:16:31;;;;;;;1.40;0.60;;;;;;;21.00;43.98;100878.09;130245;1268;108448;-73
2022/07/17 11:19:41;;;;;;;1.30;1.00;;;;;;;21.10;44.17;100879.06;130223;1268;108762;-74
2022/07/17 11:22:47;;;;;;;2.10;1.40;;;;;;;21.17;43.38;100873.26;130279;1268;108347;-73
2022/07/17 11:25:59;;;;;;;1.60;1.10;;;;;;;21.28;44.37;100881.54;130252;1268;108838;-74
2022/07/17 11:29:02;;;;;;;;;;;;;;;21.54;45.79;100870.70;130307;1268;108539;-74
2022/07/17 11:32:08;;;;;;;2.40;0.80;;;;;;;21.55;44.56;100874.63;130215;1271;108609;-73
2022/07/17 11:35:23;;;;;;;0.80;0.50;;;;;;;21.54;44.09;100879.10;130211;1268;108681;-73
2022/07/17 11:38:31;;;;;;;1.40;0.60;;;;;;;21.73;45.26;100873.83;130299;1268;108636;-73
2022/07/17 11:41:39;;;;;;;1.50;0.70;;;;;;;21.89;43.74;100873.20;130431;1268;108867;-74
2022/07/17 11:44:45;;;;;;;1.50;0.60;;;;;;;22.01;44.83;100872.61;130418;1267;108736;-73
2022/07/17 11:47:50;;;;;;;1.50;0.70;;;;;;;22.05;43.73;100874.33;130322;1268;109017;-73
2022/07/17 11:50:57;;;;;;;1.00;0.40;;;;;;;22.03;44.22;100873.48;130284;1268;108662;-75
2022/07/17 11:54:08;;;;;;;1.40;0.40;;;;;;;22.23;45.50;100867.66;130266;1268;109051;-74
2022/07/17 11:57:14;;;;;;;1.40;0.70;;;;;;;22.38;43.84;100872.35;130340;1268;108836;-74
2022/07/17 12:00:21;;;;;;;2.70;0.60;;;;;;;22.39;42.86;100873.55;130311;1267;108040;-73
2022/07/17 12:03:28;;;;;;;3.70;1.40;;;;;;;22.45;44.53;100868.88;130331;1267;108939;-74
2022/07/17 12:06:33;;;;;;;2.10;0.60;;;;;;;22.44;44.19;100867.38;130364;1267;108666;-73
2022/07/17 12:09:39;;;;;;;2.30;0.70;;;;;;;22.22;44.41;100876.11;130340;1267;108826;-74
2022/07/17 12:12:56;;;;;;;0.90;0.50;;;;;;;22.15;44.15;100880.73;130346;1267;110117;-74
2022/07/17 12:16:01;;;;;;;1.60;0.80;;;;;;;22.35;45.06;100870.34;130245;1268;108673;-74
2022/07/17 12:19:09;;;;;;;1.90;0.70;;;;;;;22.45;44.14;100873.27;130323;1267;108890;-73
2022/07/17 12:22:15;;;;;;;2.20;0.60;;;;;;;22.46;44.01;100873.86;130328;1267;107753;-74
2022/07/17 12:25:30;;;;;;;2.30;0.80;;;;;;;22.54;45.13;100872.35;130277;1267;108721;-73
2022/07/17 12:28:36;;;;;;;2.40;1.00;;;;;;;22.47;42.29;100877.58;130324;1267;108800;-75
2022/07/17 12:31:42;;;;;;;2.10;0.70;;;;;;;22.29;43.65;100876.90;130534;1267;108940;-73
2022/07/17 12:34:49;;;;;;;1.40;0.50;;;;;;;22.33;43.28;100874.00;130327;1268;108773;-73
2022/07/17 12:37:55;;;;;;;1.80;0.80;;;;;;;22.31;43.20;100876.21;130434;1267;107760;-74
2022/07/17 12:41:01;;;;;;;1.50;0.70;;;;;;;22.27;41.41;100880.24;130354;1267;108905;-74
2022/07/17 12:44:06;;;;;;;1.30;0.60;;;;;;;22.23;41.25;100882.96;130282;1267;108563;-74
2022/07/17 12:47:12;;;;;;;2.70;0.90;;;;;;;22.36;42.69;100874.19;130452;1267;108975;-74
2022/07/17 12:50:17;;;;;;;4.00;1.30;;;;;;;22.48;41.91;100875.02;130427;1267;108848;-74
2022/07/17 12:53:22;;;;;;;3.20;0.90;;;;;;;22.35;42.27;100882.48;130278;1267;108726;-73
2022/07/17 12:56:28;;;;;;;1.30;0.60;;;;;;;22.28;41.95;100885.94;130583;1267;108745;-73
2022/07/17 12:59:34;;;;;;;3.50;0.80;;;;;;;22.26;42.75;100885.02;130534;1267;108146;-74
2022/07/17 13:02:39;;;;;;;1.40;0.50;;;;;;;22.22;41.44;100887.82;130344;1267;108894;-74
2022/07/17 13:05:45;;;;;;;1.40;0.60;;;;;;;22.12;40.84;100887.05;130322;1267;108740;-74
2022/07/17 13:08:51;;;;;;;0.90;0.40;;;;;;;22.03;41.92;100884.90;130293;1267;108748;-75
2022/07/17 13:11:57;;;;;;;2.00;0.70;;;;;;;22.04;42.72;100886.75;130232;1267;108696;-73
2022/07/17 13:15:03;;;;;;;3.40;0.70;;;;;;;21.98;42.03;100890.09;130487;1267;109084;-76
2022/07/17 13:18:10;;;;;;;2.40;1.10;;;;;;;21.91;42.54;100889.25;130391;1266;108671;-75
2022/07/17 13:21:15;;;;;;;2.90;0.70;;;;;;;21.71;41.68;100893.98;130205;1268;108394;-74
2022/07/17 13:24:21;;;;;;;1.70;0.60;;;;;;;21.59;42.75;100890.21;130334;1268;108917;-74
2022/07/17 13:27:26;;;;;;;3.90;1.60;;;;;;;21.66;42.70;100891.59;130333;1268;108930;-78
2022/07/17 13:30:32;;;;;;;3.30;1.00;;;;;;;21.69;43.21;100884.98;130427;1267;108737;-77
2022/07/17 13:33:38;;;;;;;2.00;0.70;;;;;;;21.70;43.01;100885.80;130382;1267;107785;-76
2022/07/17 13:36:43;;;;;;;4.50;1.30;;;;;;;21.66;42.79;100887.61;130484;1267;108873;-76
2022/07/17 13:39:49;;;;;;;2.40;1.10;;;;;;;21.67;42.74;100886.48;130496;1267;108879;-77
2022/07/17 13:42:54;;;;;;;1.90;0.80;;;;;;;21.76;42.99;100880.86;130355;1267;108728;-78
2022/07/17 13:46:00;;;;;;;3.10;1.10;;;;;;;21.91;42.88;100879.58;130366;1267;108853;-80
2022/07/17 13:49:05;;;;;;;1.80;1.00;;;;;;;21.81;41.82;100878.13;130418;1267;108786;-79
2022/07/17 13:52:10;;;;;;;2.20;0.80;;;;;;;21.70;42.09;100877.91;130313;1267;109728;-78
2022/07/17 13:55:16;;;;;;;1.90;0.80;;;;;;;21.77;41.82;100882.61;130347;1267;108714;-77
2022/07/17 13:58:21;;;;;;;2.30;0.70;;;;;;;21.66;42.01;100885.18;130500;1266;108907;-77
2022/07/17 14:01:27;;;;;;;1.50;0.70;;;;;;;21.60;41.97;100889.09;130359;1267;108754;-74
2022/07/17 14:04:32;;;;;;;1.70;0.80;;;;;;;21.36;41.33;100897.38;130345;1267;107627;-78
2022/07/17 14:07:39;;;;;;;1.20;0.70;;;;;;;21.32;42.01;100890.11;130492;1268;109638;-79